createdAt,value
2022-10-06T00:00:03.757Z,983.35
2022-10-06T00:01:04.038Z,983.35
2022-10-06T00:02:03.797Z,983.33
2022-10-06T00:03:03.774Z,983.33
2022-10-06T00:04:03.750Z,983.41
2022-10-06T00:05:03.797Z,983.35
2022-10-06T00:06:03.825Z,983.31
2022-10-06T00:07:03.874Z,983.44
2022-10-06T00:08:03.791Z,983.47
2022-10-06T00:09:03.830Z,983.41
2022-10-06T00:10:03.310Z,983.50
2022-10-06T00:11:03.243Z,983.47
2022-10-06T00:12:03.248Z,983.47
2022-10-06T00:13:03.309Z,983.34
2022-10-06T00:14:03.335Z,983.38
2022-10-06T00:15:03.394Z,983.39
2022-10-06T00:16:03.459Z,983.36
2022-10-06T00:17:03.549Z,983.47
2022-10-06T00:18:03.469Z,983.41
2022-10-06T00:19:03.736Z,983.44
2022-10-06T00:20:03.647Z,983.47
2022-10-06T00:21:03.716Z,983.59
2022-10-06T00:22:03.793Z,983.47
2022-10-06T00:23:03.678Z,983.53
2022-10-06T00:24:03.606Z,983.45
2022-10-06T00:25:03.767Z,983.59
2022-10-06T00:26:03.826Z,983.56
2022-10-06T00:27:03.873Z,983.47
2022-10-06T00:28:03.949Z,983.56
2022-10-06T00:29:03.943Z,983.39
2022-10-06T00:30:03.892Z,983.56
2022-10-06T00:31:03.967Z,983.59
2022-10-06T00:32:03.897Z,983.56
2022-10-06T00:33:03.096Z,983.45
2022-10-06T00:34:03.045Z,983.62
2022-10-06T00:35:03.003Z,983.48
2022-10-06T00:36:02.895Z,983.53
2022-10-06T00:37:03.027Z,983.39
2022-10-06T00:38:03.025Z,983.34
2022-10-06T00:39:02.974Z,983.48
2022-10-06T00:40:02.980Z,983.45
2022-10-06T00:41:02.961Z,983.36
2022-10-06T00:42:02.950Z,983.36
2022-10-06T00:43:02.927Z,983.26
2022-10-06T00:44:02.957Z,983.39
2022-10-06T00:45:02.978Z,983.45
2022-10-06T00:46:03.147Z,983.39
2022-10-06T00:47:03.075Z,983.37
2022-10-06T00:48:03.219Z,983.37
2022-10-06T00:49:03.197Z,983.45
2022-10-06T00:50:03.187Z,983.32
2022-10-06T00:51:03.234Z,983.45
2022-10-06T00:52:03.313Z,983.48
2022-10-06T00:53:03.352Z,983.54
2022-10-06T00:54:03.330Z,983.45
2022-10-06T00:55:03.311Z,983.51
2022-10-06T00:56:03.417Z,983.63
2022-10-06T00:57:03.428Z,983.57
2022-10-06T00:58:03.319Z,983.51
2022-10-06T00:59:03.416Z,983.51
2022-10-06T01:00:03.391Z,983.60
2022-10-06T01:01:03.626Z,983.68
2022-10-06T01:02:03.505Z,983.68
2022-10-06T01:03:03.621Z,983.71
2022-10-06T01:04:03.537Z,983.63
2022-10-06T01:05:03.569Z,983.48
2022-10-06T01:06:03.599Z,983.51
2022-10-06T01:07:03.693Z,983.54
2022-10-06T01:08:03.761Z,983.57
2022-10-06T01:09:03.793Z,983.69
2022-10-06T01:10:03.856Z,983.63
2022-10-06T01:11:02.913Z,983.66
2022-10-06T01:12:03.076Z,983.57
2022-10-06T01:13:02.992Z,983.66
2022-10-06T01:14:03.069Z,983.63
2022-10-06T01:15:02.948Z,983.54
2022-10-06T01:16:03.054Z,983.57
2022-10-06T01:17:03.005Z,983.57
2022-10-06T01:18:02.933Z,983.69
2022-10-06T01:19:03.213Z,983.60
2022-10-06T01:20:03.136Z,983.72
2022-10-06T01:21:03.201Z,983.72
2022-10-06T01:22:03.168Z,983.72
2022-10-06T01:23:03.309Z,983.89
2022-10-06T01:24:03.239Z,983.78
2022-10-06T01:25:03.313Z,983.80
2022-10-06T01:26:03.424Z,983.75
2022-10-06T01:27:03.326Z,983.80
2022-10-06T01:28:03.423Z,983.80
2022-10-06T01:29:03.380Z,983.83
2022-10-06T01:30:03.453Z,983.83
2022-10-06T01:31:03.519Z,983.75
2022-10-06T01:32:03.363Z,983.81
2022-10-06T01:33:03.367Z,983.63
2022-10-06T01:34:03.464Z,983.69
2022-10-06T01:35:03.060Z,983.60
2022-10-06T01:36:03.123Z,983.60
2022-10-06T01:37:03.163Z,983.84
2022-10-06T01:38:03.125Z,983.69
2022-10-06T01:39:03.121Z,983.63
2022-10-06T01:40:03.116Z,983.78
2022-10-06T01:41:03.111Z,983.89
2022-10-06T01:42:03.076Z,983.84
2022-10-06T01:43:03.123Z,983.89
2022-10-06T01:44:03.061Z,983.78
2022-10-06T01:45:03.198Z,983.89
2022-10-06T01:46:03.160Z,983.75
2022-10-06T01:47:03.125Z,983.78
2022-10-06T01:48:03.158Z,983.75
2022-10-06T01:49:03.216Z,983.69
2022-10-06T01:50:03.258Z,983.84
2022-10-06T01:51:03.186Z,983.66
2022-10-06T01:52:03.196Z,983.72
2022-10-06T01:53:03.125Z,983.72
2022-10-06T01:54:03.080Z,983.78
2022-10-06T01:55:03.031Z,983.66
2022-10-06T01:56:03.050Z,983.64
2022-10-06T01:57:03.150Z,983.61
2022-10-06T01:58:03.005Z,983.72
2022-10-06T01:59:02.995Z,983.64
2022-10-06T02:00:03.134Z,983.55
2022-10-06T02:01:03.047Z,983.55
2022-10-06T02:02:03.156Z,983.46
2022-10-06T02:03:03.096Z,983.38
2022-10-06T02:04:03.251Z,983.52
2022-10-06T02:05:03.180Z,983.49
2022-10-06T02:06:03.218Z,983.52
2022-10-06T02:07:03.216Z,983.33
2022-10-06T02:08:03.162Z,983.43
2022-10-06T02:09:03.190Z,983.35
2022-10-06T02:10:03.134Z,983.38
2022-10-06T02:11:03.184Z,983.64
2022-10-06T02:12:03.155Z,983.67
2022-10-06T02:13:03.071Z,983.72
2022-10-06T02:14:02.934Z,983.78
2022-10-06T02:15:03.117Z,983.90
2022-10-06T02:16:03.171Z,983.81
2022-10-06T02:17:03.126Z,983.78
2022-10-06T02:18:03.074Z,983.87
2022-10-06T02:19:03.113Z,983.95
2022-10-06T02:20:03.295Z,983.87
2022-10-06T02:21:03.218Z,983.90
2022-10-06T02:22:03.270Z,983.98
2022-10-06T02:23:03.265Z,984.21
2022-10-06T02:24:03.364Z,984.10
2022-10-06T02:25:03.350Z,983.98
2022-10-06T02:26:03.349Z,984.15
2022-10-06T02:27:03.299Z,984.15
2022-10-06T02:28:03.633Z,984.10
2022-10-06T02:29:03.476Z,984.10
2022-10-06T02:30:03.377Z,984.07
2022-10-06T02:31:03.559Z,984.04
2022-10-06T02:32:03.375Z,984.15
2022-10-06T02:33:03.488Z,984.10
2022-10-06T02:34:03.460Z,984.07
2022-10-06T02:35:03.567Z,984.18
2022-10-06T02:36:03.478Z,984.07
2022-10-06T02:37:03.507Z,984.16
2022-10-06T02:38:03.457Z,984.30
2022-10-06T02:39:03.495Z,984.19
2022-10-06T02:40:03.532Z,984.19
2022-10-06T02:41:03.506Z,984.42
2022-10-06T02:42:03.473Z,984.33
2022-10-06T02:43:03.439Z,984.42
2022-10-06T02:44:03.346Z,984.39
2022-10-06T02:48:03.937Z,984.33
2022-10-06T02:49:02.904Z,984.22
2022-10-06T02:50:03.850Z,984.39
2022-10-06T02:51:02.918Z,984.34
2022-10-06T02:52:02.994Z,984.34
2022-10-06T02:53:02.896Z,984.22
2022-10-06T02:54:02.967Z,984.42
2022-10-06T02:55:03.064Z,984.39
2022-10-06T02:56:03.130Z,984.34
2022-10-06T02:57:03.189Z,984.28
2022-10-06T02:58:03.062Z,984.25
2022-10-06T02:59:03.052Z,984.28
2022-10-06T03:00:02.981Z,984.42
2022-10-06T03:01:03.040Z,984.37
2022-10-06T03:02:03.338Z,984.48
2022-10-06T03:03:03.959Z,984.39
2022-10-06T03:04:02.927Z,984.48
2022-10-06T03:05:03.852Z,984.42
2022-10-06T03:06:03.861Z,984.60
2022-10-06T03:07:02.905Z,984.57
2022-10-06T03:08:02.953Z,984.57
2022-10-06T03:09:03.860Z,984.60
2022-10-06T03:10:03.859Z,984.54
2022-10-06T03:11:03.019Z,984.60
2022-10-06T03:12:03.960Z,984.54
2022-10-06T03:13:03.866Z,984.57
2022-10-06T03:14:03.921Z,984.60
2022-10-06T03:15:03.792Z,984.66
2022-10-06T03:16:03.041Z,984.54
2022-10-06T03:17:02.991Z,984.69
2022-10-06T03:18:02.896Z,984.72
2022-10-06T03:19:02.950Z,984.66
2022-10-06T03:20:02.933Z,984.63
2022-10-06T03:21:02.991Z,984.72
2022-10-06T03:22:02.879Z,984.77
2022-10-06T03:23:02.998Z,984.75
2022-10-06T03:24:02.994Z,984.77
2022-10-06T03:25:02.991Z,984.72
2022-10-06T03:26:02.947Z,984.80
2022-10-06T03:27:03.080Z,984.75
2022-10-06T03:28:03.091Z,984.80
2022-10-06T03:29:02.967Z,984.86
2022-10-06T03:30:03.054Z,984.86
2022-10-06T03:31:03.189Z,984.95
2022-10-06T03:32:03.088Z,984.86
2022-10-06T03:33:03.046Z,985.01
2022-10-06T03:34:03.143Z,984.95
2022-10-06T03:35:03.150Z,985.12
2022-10-06T03:36:03.277Z,985.10
2022-10-06T03:37:03.174Z,985.04
2022-10-06T03:38:03.293Z,984.93
2022-10-06T03:39:03.215Z,985.13
2022-10-06T03:40:03.179Z,985.04
2022-10-06T03:41:03.235Z,985.07
2022-10-06T03:42:03.299Z,984.99
2022-10-06T03:43:03.256Z,985.07
2022-10-06T03:44:03.261Z,985.30
2022-10-06T03:45:03.287Z,985.13
2022-10-06T03:46:03.329Z,985.10
2022-10-06T03:47:03.536Z,985.16
2022-10-06T03:48:03.509Z,985.19
2022-10-06T03:49:03.517Z,985.19
2022-10-06T03:50:03.562Z,985.10
2022-10-06T03:51:03.638Z,985.13
2022-10-06T03:52:03.644Z,985.13
2022-10-06T03:53:03.672Z,985.10
2022-10-06T03:54:03.591Z,985.07
2022-10-06T03:55:03.504Z,985.16
2022-10-06T03:56:03.562Z,985.25
2022-10-06T03:57:03.527Z,985.38
2022-10-06T03:58:03.575Z,985.30
2022-10-06T03:59:03.696Z,985.16
2022-10-06T04:00:03.675Z,985.38
2022-10-06T04:01:03.814Z,985.22
2022-10-06T04:02:03.841Z,985.16
2022-10-06T04:03:03.793Z,985.24
2022-10-06T04:04:03.774Z,985.16
2022-10-06T04:05:03.829Z,985.21
2022-10-06T04:06:02.898Z,985.27
2022-10-06T04:07:02.907Z,985.24
2022-10-06T04:08:02.965Z,985.24
2022-10-06T04:09:03.138Z,985.35
2022-10-06T04:10:03.670Z,985.27
2022-10-06T04:11:03.692Z,985.27
2022-10-06T04:12:03.711Z,985.30
2022-10-06T04:13:03.693Z,985.30
2022-10-06T04:14:03.717Z,985.30
2022-10-06T04:15:02.941Z,985.37
2022-10-06T04:16:03.110Z,985.40
2022-10-06T04:17:03.091Z,985.49
2022-10-06T04:18:03.080Z,985.49
2022-10-06T04:19:03.216Z,985.49
2022-10-06T04:20:03.187Z,985.57
2022-10-06T04:21:03.257Z,985.51
2022-10-06T04:22:03.283Z,985.46
2022-10-06T04:23:03.292Z,985.21
2022-10-06T04:24:03.344Z,985.15
2022-10-06T04:25:03.690Z,985.37
2022-10-06T04:26:03.439Z,985.40
2022-10-06T04:27:03.451Z,985.43
2022-10-06T04:28:03.586Z,985.29
2022-10-06T04:29:03.319Z,985.29
2022-10-06T04:30:03.339Z,985.45
2022-10-06T04:31:03.495Z,985.26
2022-10-06T04:32:03.658Z,985.42
2022-10-06T04:33:03.510Z,985.48
2022-10-06T04:34:03.614Z,985.51
2022-10-06T04:35:03.627Z,985.54
2022-10-06T04:36:03.624Z,985.42
2022-10-06T04:37:03.703Z,985.57
2022-10-06T04:38:03.836Z,985.80
2022-10-06T04:39:03.801Z,985.54
2022-10-06T04:40:03.680Z,985.56
2022-10-06T04:41:03.043Z,985.62
2022-10-06T04:42:03.026Z,985.65
2022-10-06T04:43:03.026Z,985.56
2022-10-06T04:44:03.125Z,985.59
2022-10-06T04:45:03.292Z,985.68
2022-10-06T04:46:41.951Z,985.62
2022-10-06T04:47:03.529Z,985.56
2022-10-06T04:48:03.519Z,985.62
2022-10-06T04:49:03.498Z,985.76
2022-10-06T04:50:03.446Z,985.88
2022-10-06T04:51:03.505Z,985.79
2022-10-06T04:52:03.481Z,985.74
2022-10-06T04:53:03.553Z,985.79
2022-10-06T04:54:03.498Z,985.88
2022-10-06T04:55:03.481Z,985.91
2022-10-06T04:56:03.446Z,985.99
2022-10-06T04:57:03.506Z,985.88
2022-10-06T04:58:03.408Z,985.76
2022-10-06T04:59:03.476Z,985.76
2022-10-06T05:00:14.021Z,985.88
2022-10-06T05:01:03.566Z,985.88
2022-10-06T05:02:03.876Z,985.82
2022-10-06T05:03:03.675Z,985.97
2022-10-06T05:04:03.647Z,985.97
2022-10-06T05:05:03.703Z,985.85
2022-10-06T05:06:03.713Z,985.97
2022-10-06T05:07:03.757Z,985.99
2022-10-06T05:08:03.823Z,986.11
2022-10-06T05:09:03.795Z,986.08
2022-10-06T05:10:02.941Z,986.20
2022-10-06T05:11:03.856Z,986.20
2022-10-06T05:12:02.963Z,986.11
2022-10-06T05:13:02.965Z,986.25
2022-10-06T05:14:02.887Z,986.31
2022-10-06T05:15:03.066Z,986.31
2022-10-06T05:16:03.001Z,986.37
2022-10-06T05:17:03.099Z,986.34
2022-10-06T05:18:03.112Z,986.31
2022-10-06T05:19:02.995Z,986.40
2022-10-06T05:20:03.051Z,986.37
2022-10-06T05:21:06.990Z,986.37
2022-10-06T05:22:03.288Z,986.37
2022-10-06T05:23:03.241Z,986.48
2022-10-06T05:24:03.249Z,986.56
2022-10-06T05:25:03.128Z,986.48
2022-10-06T05:26:03.088Z,986.54
2022-10-06T05:27:03.071Z,986.59
2022-10-06T05:28:03.149Z,986.48
2022-10-06T05:29:03.009Z,986.59
2022-10-06T05:30:03.011Z,986.62
2022-10-06T05:31:03.003Z,986.70
2022-10-06T05:32:03.239Z,986.68
2022-10-06T05:33:03.089Z,986.70
2022-10-06T05:34:03.005Z,986.70
2022-10-06T05:35:02.920Z,986.68
2022-10-06T05:36:02.919Z,986.88
2022-10-06T05:37:02.910Z,986.94
2022-10-06T05:38:02.984Z,986.88
2022-10-06T05:39:02.986Z,986.99
2022-10-06T05:40:02.899Z,986.82
2022-10-06T05:41:02.990Z,986.96
2022-10-06T05:42:03.037Z,987.05
2022-10-06T05:43:03.036Z,987.11
2022-10-06T05:44:03.108Z,987.20
2022-10-06T05:45:03.252Z,987.22
2022-10-06T05:46:03.287Z,987.31
2022-10-06T05:47:03.303Z,987.31
2022-10-06T05:48:03.335Z,987.28
2022-10-06T05:49:03.416Z,987.20
2022-10-06T05:50:03.336Z,987.26
2022-10-06T05:51:03.317Z,987.26
2022-10-06T05:52:03.368Z,987.29
2022-10-06T05:53:03.274Z,987.43
2022-10-06T05:54:04.771Z,987.43
2022-10-06T05:55:03.704Z,987.43
2022-10-06T05:56:03.719Z,987.55
2022-10-06T05:57:03.705Z,987.61
2022-10-06T05:58:03.733Z,987.58
2022-10-06T05:59:03.222Z,987.61
2022-10-06T06:00:03.256Z,987.53
2022-10-06T06:01:03.165Z,987.64
2022-10-06T06:02:03.541Z,987.61
2022-10-06T06:03:03.401Z,987.56
2022-10-06T06:04:03.171Z,987.62
2022-10-06T06:05:03.178Z,987.76
2022-10-06T06:06:03.229Z,987.62
2022-10-06T06:07:03.342Z,987.93
2022-10-06T06:08:03.216Z,987.76
2022-10-06T06:09:03.243Z,987.79
2022-10-06T06:10:03.267Z,987.71
2022-10-06T06:11:03.354Z,987.77
2022-10-06T06:12:03.347Z,987.88
2022-10-06T06:13:03.360Z,987.74
2022-10-06T06:14:03.264Z,987.85
2022-10-06T06:15:03.196Z,987.77
2022-10-06T06:16:03.329Z,987.77
2022-10-06T06:17:03.414Z,987.93
2022-10-06T06:18:03.327Z,987.91
2022-10-06T06:19:03.322Z,987.83
2022-10-06T06:20:03.326Z,987.96
2022-10-06T06:21:03.396Z,987.83
2022-10-06T06:22:03.311Z,987.99
2022-10-06T06:23:03.342Z,988.02
2022-10-06T06:24:03.375Z,988.05
2022-10-06T06:25:03.319Z,988.14
2022-10-06T06:26:03.303Z,988.14
2022-10-06T06:27:03.425Z,988.25
2022-10-06T06:28:03.508Z,988.27
2022-10-06T06:29:03.375Z,988.22
2022-10-06T06:30:03.397Z,988.27
2022-10-06T06:31:03.576Z,988.27
2022-10-06T06:32:03.352Z,988.33
2022-10-06T06:33:03.493Z,988.39
2022-10-06T06:34:03.424Z,988.42
2022-10-06T06:35:03.379Z,988.33
2022-10-06T06:36:03.453Z,988.50
2022-10-06T06:37:11.641Z,988.70
2022-10-06T06:38:03.331Z,988.53
2022-10-06T06:39:03.539Z,988.47
2022-10-06T06:40:03.294Z,988.56
2022-10-06T06:41:03.440Z,988.65
2022-10-06T06:42:03.474Z,988.62
2022-10-06T06:43:03.383Z,988.67
2022-10-06T06:44:03.362Z,988.56
2022-10-06T06:45:03.419Z,988.73
2022-10-06T06:46:03.444Z,988.79
2022-10-06T06:47:03.470Z,988.76
2022-10-06T06:48:03.501Z,988.88
2022-10-06T06:49:03.620Z,988.82
2022-10-06T06:50:03.778Z,988.82
2022-10-06T06:51:03.799Z,988.82
2022-10-06T06:52:03.651Z,988.88
2022-10-06T06:53:03.773Z,988.70
2022-10-06T06:54:03.790Z,988.91
2022-10-06T06:55:03.907Z,988.79
2022-10-06T06:56:02.924Z,988.96
2022-10-06T06:57:02.936Z,988.82
2022-10-06T06:58:03.029Z,988.85
2022-10-06T06:59:03.010Z,989.02
2022-10-06T07:00:03.143Z,989.19
2022-10-06T07:01:03.380Z,989.16
2022-10-06T07:02:03.445Z,989.22
2022-10-06T07:03:03.321Z,989.02
2022-10-06T07:04:03.268Z,989.28
2022-10-06T07:05:03.332Z,989.22
2022-10-06T07:06:03.291Z,989.14
2022-10-06T07:07:03.420Z,989.25
2022-10-06T07:08:03.389Z,989.22
2022-10-06T07:09:03.293Z,989.22
2022-10-06T07:10:03.326Z,989.25
2022-10-06T07:11:03.289Z,989.37
2022-10-06T07:12:03.234Z,989.54
2022-10-06T07:13:03.342Z,989.51
2022-10-06T07:14:03.318Z,989.62
2022-10-06T07:15:03.303Z,989.39
2022-10-06T07:16:03.351Z,989.45
2022-10-06T07:17:03.406Z,989.42
2022-10-06T07:18:03.485Z,989.45
2022-10-06T07:19:03.400Z,989.37
2022-10-06T07:20:03.469Z,989.34
2022-10-06T07:21:03.422Z,989.45
2022-10-06T07:22:03.504Z,989.48
2022-10-06T07:23:03.449Z,989.54
2022-10-06T07:24:03.577Z,989.59
2022-10-06T07:25:03.499Z,989.48
2022-10-06T07:26:03.483Z,989.62
2022-10-06T07:27:03.611Z,989.59
2022-10-06T07:28:03.755Z,989.53
2022-10-06T07:29:03.573Z,989.72
2022-10-06T07:30:03.706Z,989.59
2022-10-06T07:31:03.891Z,989.68
2022-10-06T07:32:03.801Z,989.68
2022-10-06T07:33:02.968Z,989.62
2022-10-06T07:34:02.911Z,989.59
2022-10-06T07:35:03.931Z,989.69
2022-10-06T07:36:02.969Z,989.81
2022-10-06T07:37:06.787Z,989.72
2022-10-06T07:38:02.896Z,989.72
2022-10-06T07:39:02.954Z,989.69
2022-10-06T07:40:03.004Z,989.80
2022-10-06T07:41:20.683Z,989.72
2022-10-06T07:42:02.998Z,989.74
2022-10-06T07:43:02.985Z,989.86
2022-10-06T07:44:08.411Z,989.71
2022-10-06T07:45:03.112Z,989.74
2022-10-06T07:46:03.351Z,989.94
2022-10-06T07:47:03.168Z,989.83
2022-10-06T07:48:03.230Z,989.80
2022-10-06T07:49:03.147Z,989.91
2022-10-06T07:50:03.222Z,989.85
2022-10-06T07:51:03.221Z,989.85
2022-10-06T07:52:03.101Z,989.88
2022-10-06T07:53:03.202Z,990.02
2022-10-06T07:54:03.053Z,989.88
2022-10-06T07:55:03.145Z,989.74
2022-10-06T07:56:03.209Z,989.94
2022-10-06T07:57:03.287Z,989.96
2022-10-06T07:58:03.267Z,989.96
2022-10-06T07:59:03.236Z,989.88
2022-10-06T08:00:03.822Z,989.96
2022-10-06T08:01:03.158Z,990.02
2022-10-06T08:02:03.488Z,990.08
2022-10-06T08:03:03.448Z,990.05
2022-10-06T08:04:03.349Z,989.99
2022-10-06T08:05:03.281Z,990.04
2022-10-06T08:06:03.333Z,990.13
2022-10-06T08:07:03.279Z,990.30
2022-10-06T08:08:03.261Z,990.13
2022-10-06T08:09:03.288Z,990.12
2022-10-06T08:10:03.348Z,990.21
2022-10-06T08:11:03.466Z,990.21
2022-10-06T08:12:03.582Z,990.18
2022-10-06T08:13:03.702Z,990.26
2022-10-06T08:14:03.791Z,990.38
2022-10-06T08:15:07.961Z,990.41
2022-10-06T08:16:03.788Z,990.80
2022-10-06T08:17:03.852Z,990.54
2022-10-06T08:19:03.748Z,990.71
2022-10-06T08:20:03.884Z,990.74
2022-10-06T08:21:02.968Z,990.74
2022-10-06T08:22:05.337Z,990.86
2022-10-06T08:23:03.916Z,990.94
2022-10-06T08:24:03.942Z,990.89
2022-10-06T08:25:07.456Z,990.97
2022-10-06T08:26:02.966Z,991.00
2022-10-06T08:27:03.882Z,991.06
2022-10-06T08:28:04.043Z,990.97
2022-10-06T08:29:04.105Z,991.06
2022-10-06T08:30:03.846Z,991.03
2022-10-06T08:31:03.086Z,990.97
2022-10-06T08:32:03.164Z,991.08
2022-10-06T08:33:03.116Z,991.03
2022-10-06T08:34:03.034Z,991.17
2022-10-06T08:35:03.137Z,991.26
2022-10-06T08:36:03.069Z,991.26
2022-10-06T08:37:20.372Z,991.23
2022-10-06T08:38:03.233Z,991.43
2022-10-06T08:39:03.343Z,991.23
2022-10-06T08:40:03.329Z,991.40
2022-10-06T08:41:03.259Z,991.34
2022-10-06T08:42:03.368Z,991.34
2022-10-06T08:43:03.415Z,991.40
2022-10-06T08:44:03.462Z,991.53
2022-10-06T08:45:03.430Z,991.34
2022-10-06T08:46:03.428Z,991.59
2022-10-06T08:47:03.645Z,991.43
2022-10-06T08:48:03.530Z,991.37
2022-10-06T08:49:03.694Z,991.43
2022-10-06T08:50:03.665Z,991.47
2022-10-06T08:51:03.699Z,991.37
2022-10-06T08:52:03.716Z,991.37
2022-10-06T08:53:03.655Z,991.62
2022-10-06T08:54:03.745Z,991.47
2022-10-06T08:55:03.812Z,991.45
2022-10-06T08:56:03.856Z,991.47
2022-10-06T08:57:03.927Z,991.64
2022-10-06T08:58:03.973Z,991.59
2022-10-06T08:59:03.016Z,991.67
2022-10-06T09:00:02.931Z,991.67
2022-10-06T09:01:03.081Z,991.70
2022-10-06T09:02:03.135Z,991.73
2022-10-06T09:03:03.126Z,991.70
2022-10-06T09:04:03.207Z,991.67
2022-10-06T09:05:03.813Z,991.84
2022-10-06T09:06:03.851Z,991.81
2022-10-06T09:07:10.628Z,991.78
2022-10-06T09:08:03.006Z,991.90
2022-10-06T09:09:03.013Z,991.73
2022-10-06T09:10:03.061Z,991.84
2022-10-06T09:11:02.949Z,991.87
2022-10-06T09:12:03.111Z,991.96
2022-10-06T09:13:03.011Z,991.93
2022-10-06T09:14:03.873Z,991.87
2022-10-06T09:15:03.845Z,991.81
2022-10-06T09:16:04.058Z,991.84
2022-10-06T09:17:03.992Z,991.73
2022-10-06T09:18:02.971Z,991.78
2022-10-06T09:19:09.681Z,991.99
2022-10-06T09:20:02.955Z,991.87
2022-10-06T09:21:03.040Z,991.70
2022-10-06T09:22:03.327Z,991.70
2022-10-06T09:23:03.284Z,991.81
2022-10-06T09:24:03.240Z,991.76
2022-10-06T09:25:03.284Z,991.87
2022-10-06T09:26:03.250Z,991.90
2022-10-06T09:27:03.392Z,991.81
2022-10-06T09:28:03.314Z,991.96
2022-10-06T09:29:03.254Z,991.98
2022-10-06T09:30:03.379Z,992.04
2022-10-06T09:31:03.567Z,991.95
2022-10-06T09:32:03.433Z,991.92
2022-10-06T09:33:03.476Z,991.95
2022-10-06T09:34:03.566Z,991.84
2022-10-06T09:35:03.649Z,992.01
2022-10-06T09:36:03.762Z,991.95
2022-10-06T09:37:03.798Z,991.98
2022-10-06T09:38:09.342Z,992.09
2022-10-06T09:39:03.836Z,992.12
2022-10-06T09:40:03.814Z,992.15
2022-10-06T09:41:03.773Z,992.18
2022-10-06T09:42:03.830Z,992.12
2022-10-06T09:43:03.879Z,992.18
2022-10-06T09:44:03.838Z,992.03
2022-10-06T09:45:03.951Z,992.06
2022-10-06T09:46:03.033Z,992.15
2022-10-06T09:47:02.989Z,992.09
2022-10-06T09:48:03.075Z,992.21
2022-10-06T09:49:02.895Z,992.18
2022-10-06T09:50:02.947Z,992.23
2022-10-06T09:51:03.863Z,992.23
2022-10-06T09:52:02.952Z,992.23
2022-10-06T09:53:02.954Z,992.20
2022-10-06T09:54:03.042Z,992.35
2022-10-06T09:55:03.148Z,992.35
2022-10-06T09:56:03.186Z,992.38
2022-10-06T09:57:03.138Z,992.35
2022-10-06T09:58:03.123Z,992.52
2022-10-06T09:59:03.199Z,992.38
2022-10-06T10:00:03.161Z,992.49
2022-10-06T10:01:03.374Z,992.46
2022-10-06T10:02:03.337Z,992.55
2022-10-06T10:03:03.518Z,992.55
2022-10-06T10:04:22.056Z,992.72
2022-10-06T10:05:03.624Z,992.66
2022-10-06T10:06:03.837Z,992.60
2022-10-06T10:07:03.741Z,992.55
2022-10-06T10:08:03.798Z,992.52
2022-10-06T10:09:03.899Z,992.63
2022-10-06T10:10:03.979Z,992.60
2022-10-06T10:11:03.929Z,992.57
2022-10-06T10:12:02.905Z,992.69
2022-10-06T10:13:02.964Z,992.63
2022-10-06T10:14:03.057Z,992.60
2022-10-06T10:15:03.042Z,992.60
2022-10-06T10:16:03.165Z,992.63
2022-10-06T10:17:03.119Z,992.66
2022-10-06T10:18:03.215Z,992.66
2022-10-06T10:19:03.033Z,992.75
2022-10-06T10:20:03.123Z,992.80
2022-10-06T10:21:03.198Z,992.75
2022-10-06T10:22:03.298Z,992.89
2022-10-06T10:23:03.350Z,992.91
2022-10-06T10:24:03.376Z,992.86
2022-10-06T10:25:03.324Z,992.91
2022-10-06T10:26:03.417Z,993.06
2022-10-06T10:27:03.292Z,992.91
2022-10-06T10:28:03.494Z,992.94
2022-10-06T10:29:03.342Z,993.05
2022-10-06T10:30:03.367Z,992.97
2022-10-06T10:31:03.560Z,992.96
2022-10-06T10:32:03.335Z,992.86
2022-10-06T10:33:03.415Z,992.96
2022-10-06T10:35:03.402Z,992.91
2022-10-06T10:36:03.536Z,992.99
2022-10-06T10:37:03.565Z,992.86
2022-10-06T10:38:03.592Z,992.91
2022-10-06T10:39:03.633Z,992.93
2022-10-06T10:40:03.731Z,992.80
2022-10-06T10:41:03.724Z,992.89
2022-10-06T10:42:03.910Z,992.89
2022-10-06T10:43:03.872Z,992.83
2022-10-06T10:44:04.535Z,992.89
2022-10-06T10:45:03.850Z,992.96
2022-10-06T10:46:03.814Z,992.89
2022-10-06T10:47:03.038Z,992.91
2022-10-06T10:48:02.909Z,992.94
2022-10-06T10:49:02.938Z,993.05
2022-10-06T10:50:02.995Z,992.94
2022-10-06T10:51:03.059Z,992.94
2022-10-06T10:52:03.134Z,993.05
2022-10-06T10:53:03.262Z,992.96
2022-10-06T10:54:03.288Z,993.05
2022-10-06T10:55:03.260Z,993.05
2022-10-06T10:56:03.158Z,993.05
2022-10-06T10:57:03.240Z,992.96
2022-10-06T10:58:03.236Z,993.20
2022-10-06T10:59:03.333Z,993.25
2022-10-06T11:00:03.267Z,993.17
2022-10-06T11:01:03.475Z,993.14
2022-10-06T11:02:03.528Z,993.25
2022-10-06T11:03:03.417Z,993.23
2022-10-06T11:04:03.423Z,993.20
2022-10-06T11:05:03.371Z,993.11
2022-10-06T11:06:03.307Z,993.20
2022-10-06T11:07:03.486Z,993.25
2022-10-06T11:08:03.349Z,993.25
2022-10-06T11:09:03.330Z,993.22
2022-10-06T11:10:03.407Z,993.25
2022-10-06T11:11:03.454Z,993.25
2022-10-06T11:12:03.431Z,993.19
2022-10-06T11:13:03.634Z,993.22
2022-10-06T11:14:03.590Z,993.25
2022-10-06T11:15:03.704Z,993.27
2022-10-06T11:16:03.943Z,993.39
2022-10-06T11:17:03.711Z,993.25
2022-10-06T11:18:03.950Z,993.25
2022-10-06T11:19:03.855Z,993.30
2022-10-06T11:20:02.972Z,993.27
2022-10-06T11:21:03.267Z,993.25
2022-10-06T11:22:03.038Z,993.25
2022-10-06T11:23:03.097Z,993.16
2022-10-06T11:24:03.542Z,993.19
2022-10-06T11:25:04.296Z,993.22
2022-10-06T11:26:03.878Z,993.25
2022-10-06T11:27:02.966Z,993.16
2022-10-06T11:28:03.944Z,993.44
2022-10-06T11:29:02.950Z,993.27
2022-10-06T11:30:02.991Z,993.33
2022-10-06T11:31:03.104Z,993.42
2022-10-06T11:32:03.159Z,993.45
2022-10-06T11:33:03.122Z,993.59
2022-10-06T11:34:03.273Z,993.47
2022-10-06T11:35:03.156Z,993.47
2022-10-06T11:36:03.358Z,993.42
2022-10-06T11:37:03.288Z,993.45
2022-10-06T11:38:03.379Z,993.45
2022-10-06T11:39:03.379Z,993.45
2022-10-06T11:40:03.419Z,993.50
2022-10-06T11:41:09.983Z,993.59
2022-10-06T11:42:03.463Z,993.62
2022-10-06T11:43:03.540Z,993.36
2022-10-06T11:44:03.489Z,993.33
2022-10-06T11:45:03.639Z,993.44
2022-10-06T11:46:03.833Z,993.30
2022-10-06T11:47:03.642Z,993.39
2022-10-06T11:48:03.667Z,993.42
2022-10-06T11:49:03.564Z,993.36
2022-10-06T11:50:03.584Z,993.47
2022-10-06T11:51:03.804Z,993.41
2022-10-06T11:52:08.536Z,993.56
2022-10-06T11:53:03.814Z,993.53
2022-10-06T11:54:03.683Z,993.50
2022-10-06T11:55:03.982Z,993.41
2022-10-06T11:56:03.713Z,993.56
2022-10-06T11:57:03.762Z,993.44
2022-10-06T11:58:30.187Z,993.38
2022-10-06T11:59:03.759Z,993.36
2022-10-06T12:00:03.702Z,993.44
2022-10-06T12:01:03.760Z,993.47
2022-10-06T12:02:03.930Z,993.27
2022-10-06T12:03:03.834Z,993.50
2022-10-06T12:04:03.839Z,993.30
2022-10-06T12:05:03.790Z,993.33
2022-10-06T12:06:03.701Z,993.33
2022-10-06T12:07:03.961Z,993.38
2022-10-06T12:08:03.785Z,993.33
2022-10-06T12:09:03.802Z,993.30
2022-10-06T12:10:02.938Z,993.38
2022-10-06T12:11:02.963Z,993.35
2022-10-06T12:12:03.070Z,993.33
2022-10-06T12:13:11.309Z,993.41
2022-10-06T12:17:12.940Z,993.44
2022-10-06T12:17:19.193Z,993.38
2022-10-06T12:18:03.854Z,993.30
2022-10-06T12:19:03.016Z,993.30
2022-10-06T12:20:03.183Z,993.30
2022-10-06T12:21:03.003Z,993.35
2022-10-06T12:22:03.061Z,993.32
2022-10-06T12:23:03.078Z,993.30
2022-10-06T12:24:03.169Z,993.22
2022-10-06T12:25:03.513Z,993.38
2022-10-06T12:26:03.119Z,993.25
2022-10-06T12:27:03.088Z,993.35
2022-10-06T12:28:03.123Z,993.25
2022-10-06T12:29:03.086Z,993.07
2022-10-06T12:30:03.326Z,993.22
2022-10-06T12:31:03.477Z,993.19
2022-10-06T12:32:03.270Z,993.13
2022-10-06T12:33:03.240Z,993.16
2022-10-06T12:34:03.253Z,993.16
2022-10-06T12:35:03.407Z,993.04